SBKP/CPQ METAR and TAF weather

Enter ICAO airport designator
Station Type Date Time Source
SBKP METAR 2020/02/25 12:00 UTC NOAA

SBKP 251200Z 34007KT 9999 SCT011 BKN070 24/20 Q1017


Station Type Date Time Source
SBKP Decoded METAR 2020/02/25 12:00 UTC NOAA

Campinas Aeroporto , Brazil (SBKP) 23-00S 047-08W 661M
Feb 25, 2020 - 07:00 AM EST / 2020.02.25 1200 UTC
Wind: from the NNW (340 degrees) at 8 MPH (7 KT):0
Visibility: greater than 7 mile(s):0
Sky conditions: mostly cloudy
Temperature: 75 F (24 C)
Dew Point: 68 F (20 C)
Relative Humidity: 78%
Pressure (altimeter): 30.03 in. Hg (1017 hPa)
ob: SBKP 251200Z 34007KT 9999 SCT011 BKN070 24/20 Q1017
cycle: 12

Station Type Date Time Source
SBKP TAF 2020/02/25 12:36 UTC NOAA

TAF SBKP 250900Z 2512/2612 05008KT 9999 FEW030TX30/2517Z TN19/2608Z
BECMG 2513/2515 34005KT SCT035 PROB40 2518/2522 26008KT 8000 TSRA BKN030 FEW045CB
BECMG 2523/2601 12008KT CAVOK
BECMG 2608/2610 06005KT
RMK PGH

Example: see airport list